sensor_id;sensor_type;location;lat;lon;timestamp;pressure;altitude;pressure_sealevel;temperature;humidity
75447;BME280;64024;55.820;37.574;2023-03-03T00:00:59;97368.88;;;15.88;41.13
75447;BME280;64024;55.820;37.574;2023-03-03T00:03:25;97363.53;;;15.88;40.79
75447;BME280;64024;55.820;37.574;2023-03-03T00:05:53;97356.28;;;15.89;41.09
75447;BME280;64024;55.820;37.574;2023-03-03T00:08:19;97351.19;;;15.87;40.76
75447;BME280;64024;55.820;37.574;2023-03-03T00:10:46;97349.59;;;15.86;41.22
75447;BME280;64024;55.820;37.574;2023-03-03T00:13:15;97350.69;;;15.85;41.18
75447;BME280;64024;55.820;37.574;2023-03-03T00:15:41;97348.81;;;15.86;41.05
75447;BME280;64024;55.820;37.574;2023-03-03T00:20:58;97349.09;;;15.84;41.12
75447;BME280;64024;55.820;37.574;2023-03-03T00:23:34;97334.88;;;15.84;40.84
75447;BME280;64024;55.820;37.574;2023-03-03T00:26:00;97322.88;;;15.81;40.76
75447;BME280;64024;55.820;37.574;2023-03-03T00:30:55;97324.78;;;15.81;41.05
75447;BME280;64024;55.820;37.574;2023-03-03T00:33:25;97315.44;;;15.78;41.04
75447;BME280;64024;55.820;37.574;2023-03-03T00:35:56;97318.09;;;15.78;41.14
75447;BME280;64024;55.820;37.574;2023-03-03T00:38:22;97323.47;;;15.78;41.36
75447;BME280;64024;55.820;37.574;2023-03-03T00:40:48;97313.84;;;15.77;41.29
75447;BME280;64024;55.820;37.574;2023-03-03T00:43:19;97309.56;;;15.76;40.99
75447;BME280;64024;55.820;37.574;2023-03-03T00:45:51;97303.41;;;15.76;41.25
75447;BME280;64024;55.820;37.574;2023-03-03T00:48:24;97308.75;;;15.76;41.17
75447;BME280;64024;55.820;37.574;2023-03-03T00:50:52;97298.34;;;15.74;41.12
75447;BME280;64024;55.820;37.574;2023-03-03T00:53:19;97295.97;;;15.73;41.09
75447;BME280;64024;55.820;37.574;2023-03-03T00:55:46;97297.84;;;15.72;40.94
75447;BME280;64024;55.820;37.574;2023-03-03T00:58:13;97291.66;;;15.72;41.41
75447;BME280;64024;55.820;37.574;2023-03-03T01:00:39;97284.72;;;15.71;41.21
75447;BME280;64024;55.820;37.574;2023-03-03T01:03:14;97288.50;;;15.70;41.28
75447;BME280;64024;55.820;37.574;2023-03-03T01:05:40;97273.22;;;15.70;41.16
75447;BME280;64024;55.820;37.574;2023-03-03T01:08:06;97282.34;;;15.69;41.09
75447;BME280;64024;55.820;37.574;2023-03-03T01:10:35;97286.13;;;15.68;41.36
75447;BME280;64024;55.820;37.574;2023-03-03T01:13:02;97282.66;;;15.68;41.19
75447;BME280;64024;55.820;37.574;2023-03-03T01:15:28;97283.72;;;15.66;41.37
75447;BME280;64024;55.820;37.574;2023-03-03T01:17:54;97285.59;;;15.66;41.05
75447;BME280;64024;55.820;37.574;2023-03-03T01:20:20;97279.44;;;15.65;41.40
75447;BME280;64024;55.820;37.574;2023-03-03T01:22:45;97282.13;;;15.65;41.41
75447;BME280;64024;55.820;37.574;2023-03-03T01:25:11;97280.53;;;15.64;41.50
75447;BME280;64024;55.820;37.574;2023-03-03T01:27:36;97270.88;;;15.63;41.46
75447;BME280;64024;55.820;37.574;2023-03-03T01:30:04;97273.56;;;15.63;41.30
75447;BME280;64024;55.820;37.574;2023-03-03T01:32:30;97267.38;;;15.63;41.29
75447;BME280;64024;55.820;37.574;2023-03-03T01:34:55;97274.63;;;15.62;41.57
75447;BME280;64024;55.820;37.574;2023-03-03T01:37:21;97272.75;;;15.63;41.50
75447;BME280;64024;55.820;37.574;2023-03-03T01:39:51;97265.00;;;15.61;41.75
75447;BME280;64024;55.820;37.574;2023-03-03T01:42:17;97271.47;;;15.60;41.20
75447;BME280;64024;55.820;37.574;2023-03-03T01:44:43;97262.63;;;15.60;41.74
75447;BME280;64024;55.820;37.574;2023-03-03T01:47:18;97269.03;;;15.59;41.50
75447;BME280;64024;55.820;37.574;2023-03-03T01:49:56;97259.16;;;15.59;41.43
75447;BME280;64024;55.820;37.574;2023-03-03T01:52:32;97267.19;;;15.59;41.67
75447;BME280;64024;55.820;37.574;2023-03-03T01:55:03;97275.50;;;15.58;41.54
75447;BME280;64024;55.820;37.574;2023-03-03T01:57:34;97269.34;;;15.57;41.53
75447;BME280;64024;55.820;37.574;2023-03-03T02:00:03;97262.69;;;15.55;41.59
75447;BME280;64024;55.820;37.574;2023-03-03T02:02:30;97254.66;;;15.55;41.47
75447;BME280;64024;55.820;37.574;2023-03-03T02:04:56;97254.38;;;15.56;41.37
75447;BME280;64024;55.820;37.574;2023-03-03T02:07:24;97251.19;;;15.54;41.53
75447;BME280;64024;55.820;37.574;2023-03-03T02:09:58;97250.38;;;15.54;41.33
75447;BME280;64024;55.820;37.574;2023-03-03T02:12:39;97253.84;;;15.54;41.79
75447;BME280;64024;55.820;37.574;2023-03-03T02:15:25;97235.91;;;15.55;41.93
75447;BME280;64024;55.820;37.574;2023-03-03T02:17:53;97227.88;;;15.55;41.57
75447;BME280;64024;55.820;37.574;2023-03-03T02:20:50;97228.97;;;15.54;41.71
75447;BME280;64024;55.820;37.574;2023-03-03T02:24:02;97231.38;;;15.55;41.47
75447;BME280;64024;55.820;37.574;2023-03-03T02:26:31;97220.13;;;15.53;41.65
75447;BME280;64024;55.820;37.574;2023-03-03T02:28:58;97221.22;;;15.52;41.54
75447;BME280;64024;55.820;37.574;2023-03-03T02:31:26;97216.16;;;15.51;41.66
75447;BME280;64024;55.820;37.574;2023-03-03T02:33:52;97201.97;;;15.50;41.68
75447;BME280;64024;55.820;37.574;2023-03-03T02:36:21;97212.69;;;15.50;41.85
75447;BME280;64024;55.820;37.574;2023-03-03T02:43:52;97211.09;;;15.49;41.70
75447;BME280;64024;55.820;37.574;2023-03-03T02:46:21;97208.13;;;15.51;41.36
75447;BME280;64024;55.820;37.574;2023-03-03T02:48:46;97195.81;;;15.50;41.62
75447;BME280;64024;55.820;37.574;2023-03-03T02:51:12;97202.75;;;15.51;41.46
75447;BME280;64024;55.820;37.574;2023-03-03T02:53:37;97187.31;;;15.48;41.37
75447;BME280;64024;55.820;37.574;2023-03-03T02:56:03;97196.91;;;15.49;41.52
75447;BME280;64024;55.820;37.574;2023-03-03T02:58:29;97193.44;;;15.48;41.75
75447;BME280;64024;55.820;37.574;2023-03-03T03:00:55;97190.78;;;15.48;41.35
75447;BME280;64024;55.820;37.574;2023-03-03T03:03:21;97189.19;;;15.47;41.64
75447;BME280;64024;55.820;37.574;2023-03-03T03:05:47;97192.66;;;15.48;41.43
75447;BME280;64024;55.820;37.574;2023-03-03T03:08:12;97196.13;;;15.48;41.63
75447;BME280;64024;55.820;37.574;2023-03-03T03:10:38;97192.34;;;15.49;41.33
75447;BME280;64024;55.820;37.574;2023-03-03T03:13:03;97194.25;;;15.49;41.76
75447;BME280;64024;55.820;37.574;2023-03-03T03:15:29;97187.00;;;15.49;41.37
75447;BME280;64024;55.820;37.574;2023-03-03T03:17:54;97193.16;;;15.50;42.09
75447;BME280;64024;55.820;37.574;2023-03-03T03:20:20;97199.28;;;15.50;42.21
75447;BME280;64024;55.820;37.574;2023-03-03T03:22:46;97194.72;;;15.51;42.75
75447;BME280;64024;55.820;37.574;2023-03-03T03:25:12;97194.72;;;15.51;43.04
75447;BME280;64024;55.820;37.574;2023-03-03T03:27:37;97191.78;;;15.52;43.13
75447;BME280;64024;55.820;37.574;2023-03-03T03:30:03;97189.09;;;15.52;43.04
75447;BME280;64024;55.820;37.574;2023-03-03T03:32:29;97184.53;;;15.53;43.35
75447;BME280;64024;55.820;37.574;2023-03-03T03:34:54;97182.66;;;15.53;43.22
75447;BME280;64024;55.820;37.574;2023-03-03T03:37:20;97183.44;;;15.54;43.24
75447;BME280;64024;55.820;37.574;2023-03-03T03:39:45;97184.25;;;15.54;42.91
75447;BME280;64024;55.820;37.574;2023-03-03T03:42:11;97177.31;;;15.53;43.16
75447;BME280;64024;55.820;37.574;2023-03-03T03:44:36;97179.69;;;15.55;42.73
75447;BME280;64024;55.820;37.574;2023-03-03T03:47:02;97174.63;;;15.53;42.84
75447;BME280;64024;55.820;37.574;2023-03-03T03:49:28;97168.97;;;15.55;43.01
75447;BME280;64024;55.820;37.574;2023-03-03T03:51:53;97169.78;;;15.55;42.91
75447;BME280;64024;55.820;37.574;2023-03-03T03:54:19;97169.78;;;15.55;42.99
75447;BME280;64024;55.820;37.574;2023-03-03T03:56:44;97164.94;;;15.57;42.66
75447;BME280;64024;55.820;37.574;2023-03-03T03:59:10;97165.22;;;15.56;42.77
75447;BME280;64024;55.820;37.574;2023-03-03T04:01:35;97166.81;;;15.57;42.97
75447;BME280;64024;55.820;37.574;2023-03-03T04:04:01;97163.84;;;15.58;42.62
75447;BME280;64024;55.820;37.574;2023-03-03T04:06:28;97149.16;;;15.56;42.42
75447;BME280;64024;55.820;37.574;2023-03-03T04:08:54;97154.22;;;15.57;42.66
75447;BME280;64024;55.820;37.574;2023-03-03T04:11:20;97148.88;;;15.57;42.56
75447;BME280;64024;55.820;37.574;2023-03-03T04:13:45;97150.75;;;15.57;42.39
75447;BME280;64024;55.820;37.574;2023-03-03T04:16:11;97154.22;;;15.57;42.45
75447;BME280;64024;55.820;37.574;2023-03-03T04:18:36;97146.19;;;15.57;42.47
75447;BME280;64024;55.820;37.574;2023-03-03T04:21:02;97151.53;;;15.57;42.48
75447;BME280;64024;55.820;37.574;2023-03-03T04:23:28;97140.84;;;15.57;42.45
75447;BME280;64024;55.820;37.574;2023-03-03T04:25:53;97151.53;;;15.57;42.21
75447;BME280;64024;55.820;37.574;2023-03-03T04:28:19;97146.50;;;15.56;42.54
75447;BME280;64024;55.820;37.574;2023-03-03T04:30:46;97137.38;;;15.57;42.20
75447;BME280;64024;55.820;37.574;2023-03-03T04:33:11;97143.81;;;15.56;42.39
75447;BME280;64024;55.820;37.574;2023-03-03T04:35:37;97150.75;;;15.57;42.41
75447;BME280;64024;55.820;37.574;2023-03-03T04:38:02;97148.38;;;15.55;42.22
75447;BME280;64024;55.820;37.574;2023-03-03T04:40:29;97138.16;;;15.57;42.26
75447;BME280;64024;55.820;37.574;2023-03-03T04:42:54;97136.84;;;15.55;42.13
75447;BME280;64024;55.820;37.574;2023-03-03T04:45:20;97135.78;;;15.56;42.56
75447;BME280;64024;55.820;37.574;2023-03-03T04:47:45;97137.66;;;15.55;42.42
75447;BME280;64024;55.820;37.574;2023-03-03T04:50:11;97141.94;;;15.56;42.14
75447;BME280;64024;55.820;37.574;2023-03-03T04:52:37;97145.41;;;15.57;42.38
75447;BME280;64024;55.820;37.574;2023-03-03T04:55:03;97151.84;;;15.56;42.41
75447;BME280;64024;55.820;37.574;2023-03-03T04:57:29;97149.66;;;15.58;42.08
75447;BME280;64024;55.820;37.574;2023-03-03T04:59:55;97153.13;;;15.58;42.33
75447;BME280;64024;55.820;37.574;2023-03-03T05:02:20;97145.09;;;15.58;42.11
75447;BME280;64024;55.820;37.574;2023-03-03T05:04:46;97143.22;;;15.59;42.29
75447;BME280;64024;55.820;37.574;2023-03-03T05:07:12;97137.84;;;15.59;42.31
75447;BME280;64024;55.820;37.574;2023-03-03T05:09:37;97150.19;;;15.60;42.14
75447;BME280;64024;55.820;37.574;2023-03-03T05:12:03;97148.28;;;15.60;42.04
75447;BME280;64024;55.820;37.574;2023-03-03T05:14:28;97150.97;;;15.60;42.50
75447;BME280;64024;55.820;37.574;2023-03-03T05:16:55;97154.44;;;15.61;42.81
75447;BME280;64024;55.820;37.574;2023-03-03T05:19:21;97152.56;;;15.61;42.37
75447;BME280;64024;55.820;37.574;2023-03-03T05:21:46;97153.34;;;15.62;42.67
75447;BME280;64024;55.820;37.574;2023-03-03T05:24:13;97154.94;;;15.63;42.52
75447;BME280;64024;55.820;37.574;2023-03-03T05:26:39;97161.09;;;15.63;42.72
75447;BME280;64024;55.820;37.574;2023-03-03T05:29:06;97164.56;;;15.64;42.51
75447;BME280;64024;55.820;37.574;2023-03-03T05:31:32;97161.09;;;15.63;42.40
75447;BME280;64024;55.820;37.574;2023-03-03T05:33:58;97155.75;;;15.63;42.70
75447;BME280;64024;55.820;37.574;2023-03-03T05:36:24;97150.91;;;15.65;42.56
75447;BME280;64024;55.820;37.574;2023-03-03T05:38:49;97157.84;;;15.66;42.77
75447;BME280;64024;55.820;37.574;2023-03-03T05:41:15;97162.94;;;15.68;42.63
75447;BME280;64024;55.820;37.574;2023-03-03T05:43:41;97158.66;;;15.67;42.76
75447;BME280;64024;55.820;37.574;2023-03-03T05:46:06;97157.28;;;15.70;42.79
75447;BME280;64024;55.820;37.574;2023-03-03T05:48:32;97147.34;;;15.70;43.09
75447;BME280;64024;55.820;37.574;2023-03-03T05:50:58;97151.63;;;15.71;43.52
75447;BME280;64024;55.820;37.574;2023-03-03T05:53:24;97164.75;;;15.73;43.55
75447;BME280;64024;55.820;37.574;2023-03-03T05:55:50;97158.28;;;15.74;43.84
75447;BME280;64024;55.820;37.574;2023-03-03T05:58:15;97162.53;;;15.75;43.86
75447;BME280;64024;55.820;37.574;2023-03-03T06:00:41;97158.78;;;15.76;44.05
75447;BME280;64024;55.820;37.574;2023-03-03T06:03:06;97154.25;;;15.76;43.55
75447;BME280;64024;55.820;37.574;2023-03-03T06:05:32;97156.63;;;15.78;43.69
75447;BME280;64024;55.820;37.574;2023-03-03T06:07:57;97156.31;;;15.79;43.75
75447;BME280;64024;55.820;37.574;2023-03-03T06:10:24;97171.31;;;15.80;43.76
75447;BME280;64024;55.820;37.574;2023-03-03T06:12:50;97165.97;;;15.80;44.02
75447;BME280;64024;55.820;37.574;2023-03-03T06:15:16;97168.34;;;15.82;44.00
75447;BME280;64024;55.820;37.574;2023-03-03T06:17:42;97167.25;;;15.83;43.91
75447;BME280;64024;55.820;37.574;2023-03-03T06:20:08;97172.31;;;15.84;43.60
75447;BME280;64024;55.820;37.574;2023-03-03T06:22:34;97167.75;;;15.85;44.05
75447;BME280;64024;55.820;37.574;2023-03-03T06:24:59;97166.34;;;15.87;43.86
75447;BME280;64024;55.820;37.574;2023-03-03T06:27:25;97176.00;;;15.88;43.52
75447;BME280;64024;55.820;37.574;2023-03-03T06:29:51;97171.13;;;15.90;43.89
75447;BME280;64024;55.820;37.574;2023-03-03T06:32:16;97162.00;;;15.91;43.35
75447;BME280;64024;55.820;37.574;2023-03-03T06:34:42;97159.84;;;15.94;43.69
75447;BME280;64024;55.820;37.574;2023-03-03T06:37:07;97171.84;;;15.96;43.51
75447;BME280;64024;55.820;37.574;2023-03-03T06:39:33;97167.00;;;15.98;43.78
75447;BME280;64024;55.820;37.574;2023-03-03T06:41:58;97167.78;;;15.99;43.37
75447;BME280;64024;55.820;37.574;2023-03-03T06:44:24;97167.47;;;16.00;43.82
75447;BME280;64024;55.820;37.574;2023-03-03T06:46:50;97168.78;;;16.03;43.75
75447;BME280;64024;55.820;37.574;2023-03-03T06:49:16;97170.91;;;16.06;43.68
75447;BME280;64024;55.820;37.574;2023-03-03T06:51:41;97176.47;;;16.09;43.54
75447;BME280;64024;55.820;37.574;2023-03-03T06:54:10;97171.69;;;16.20;43.48
75447;BME280;64024;55.820;37.574;2023-03-03T06:56:37;97176.28;;;16.20;43.54
75447;BME280;64024;55.820;37.574;2023-03-03T06:59:11;97173.91;;;16.18;43.08
75447;BME280;64024;55.820;37.574;2023-03-03T07:01:37;97181.63;;;16.20;43.31
75447;BME280;64024;55.820;37.574;2023-03-03T07:04:26;97175.19;;;16.21;43.45
75447;BME280;64024;55.820;37.574;2023-03-03T07:07:16;97186.09;;;16.24;43.42
75447;BME280;64024;55.820;37.574;2023-03-03T07:09:44;97178.84;;;16.25;43.20
75447;BME280;64024;55.820;37.574;2023-03-03T07:12:12;97181.25;;;16.26;43.22
75447;BME280;64024;55.820;37.574;2023-03-03T07:14:44;97185.53;;;16.27;43.47
75447;BME280;64024;55.820;37.574;2023-03-03T07:17:18;97182.53;;;16.29;43.24
75447;BME280;64024;55.820;37.574;2023-03-03T07:19:46;97180.38;;;16.31;43.38
75447;BME280;64024;55.820;37.574;2023-03-03T07:22:24;97180.06;;;16.32;43.09
75447;BME280;64024;55.820;37.574;2023-03-03T07:24:53;97178.19;;;16.33;43.17
75447;BME280;64024;55.820;37.574;2023-03-03T07:27:28;97189.69;;;16.33;43.37
75447;BME280;64024;55.820;37.574;2023-03-03T07:30:08;97187.53;;;16.35;43.44
75447;BME280;64024;55.820;37.574;2023-03-03T07:32:43;97185.63;;;16.36;43.19
75447;BME280;64024;55.820;37.574;2023-03-03T07:35:28;97196.06;;;16.37;42.91
75447;BME280;64024;55.820;37.574;2023-03-03T07:37:58;97188.81;;;16.38;42.84
75447;BME280;64024;55.820;37.574;2023-03-03T07:42:58;97193.09;;;16.39;42.79
75447;BME280;64024;55.820;37.574;2023-03-03T07:45:27;97197.38;;;16.40;42.71
75447;BME280;64024;55.820;37.574;2023-03-03T07:48:08;97192.00;;;16.40;42.87
75447;BME280;64024;55.820;37.574;2023-03-03T07:50:40;97191.69;;;16.41;42.82
75447;BME280;64024;55.820;37.574;2023-03-03T07:53:25;97197.56;;;16.44;42.88
75447;BME280;64024;55.820;37.574;2023-03-03T07:55:51;97196.16;;;16.46;42.87
75447;BME280;64024;55.820;37.574;2023-03-03T07:58:23;97199.66;;;16.47;42.80
75447;BME280;64024;55.820;37.574;2023-03-03T08:03:55;97203.03;;;16.52;42.66
75447;BME280;64024;55.820;37.574;2023-03-03T08:06:53;97202.72;;;16.54;42.99
75447;BME280;64024;55.820;37.574;2023-03-03T08:11:52;97197.88;;;16.56;42.55
75447;BME280;64024;55.820;37.574;2023-03-03T08:14:25;97195.19;;;16.56;42.70
75447;BME280;64024;55.820;37.574;2023-03-03T08:16:51;97205.63;;;16.57;42.74
75447;BME280;64024;55.820;37.574;2023-03-03T08:19:17;97198.38;;;16.58;42.62
75447;BME280;64024;55.820;37.574;2023-03-03T08:21:43;97208.03;;;16.59;42.59
75447;BME280;64024;55.820;37.574;2023-03-03T08:24:08;97206.94;;;16.60;42.61
75447;BME280;64024;55.820;37.574;2023-03-03T08:26:34;97211.19;;;16.61;42.22
75447;BME280;64024;55.820;37.574;2023-03-03T08:29:00;97202.84;;;16.62;42.26
75447;BME280;64024;55.820;37.574;2023-03-03T08:31:25;97205.53;;;16.62;42.28
75447;BME280;64024;55.820;37.574;2023-03-03T08:33:51;97204.44;;;16.63;42.24
75447;BME280;64024;55.820;37.574;2023-03-03T08:36:18;97191.53;;;16.65;42.26
75447;BME280;64024;55.820;37.574;2023-03-03T08:38:43;97200.56;;;16.70;42.15
75447;BME280;64024;55.820;37.574;2023-03-03T08:41:09;97207.75;;;16.74;42.18
75447;BME280;64024;55.820;37.574;2023-03-03T08:43:35;97201.78;;;16.77;42.07
75447;BME280;64024;55.820;37.574;2023-03-03T08:46:02;97195.53;;;16.82;41.65
75447;BME280;64024;55.820;37.574;2023-03-03T08:48:29;97204.56;;;16.86;41.81
75447;BME280;64024;55.820;37.574;2023-03-03T08:50:55;97199.91;;;16.92;41.91
75447;BME280;64024;55.820;37.574;2023-03-03T08:53:22;97199.31;;;16.95;41.67
75447;BME280;64024;55.820;37.574;2023-03-03T08:55:48;97213.41;;;17.00;41.67
75447;BME280;64024;55.820;37.574;2023-03-03T08:58:14;97210.63;;;17.05;41.62
75447;BME280;64024;55.820;37.574;2023-03-03T09:00:40;97218.59;;;17.10;41.59
75447;BME280;64024;55.820;37.574;2023-03-03T09:03:06;97213.41;;;17.14;41.47
75447;BME280;64024;55.820;37.574;2023-03-03T09:05:34;97210.63;;;17.19;41.47
75447;BME280;64024;55.820;37.574;2023-03-03T09:08:00;97220.16;;;17.25;41.54
75447;BME280;64024;55.820;37.574;2023-03-03T09:10:27;97210.41;;;17.29;40.99
75447;BME280;64024;55.820;37.574;2023-03-03T09:12:54;97208.69;;;17.33;41.32
75447;BME280;64024;55.820;37.574;2023-03-03T09:15:31;97207.00;;;17.37;41.38
75447;BME280;64024;55.820;37.574;2023-03-03T09:17:59;97202.59;;;17.42;41.38
75447;BME280;64024;55.820;37.574;2023-03-03T09:26:44;97210.66;;;17.55;40.51
75447;BME280;64024;55.820;37.574;2023-03-03T09:31:48;97214.00;;;17.61;40.45
75447;BME280;64024;55.820;37.574;2023-03-03T09:36:51;97206.00;;;17.70;40.44
75447;BME280;64024;55.820;37.574;2023-03-03T09:39:25;97200.53;;;17.75;40.47
75447;BME280;64024;55.820;37.574;2023-03-03T10:01:13;97204.28;;;18.10;39.66
75447;BME280;64024;55.820;37.574;2023-03-03T10:03:53;97204.84;;;18.21;39.64
75447;BME280;64024;55.820;37.574;2023-03-03T10:06:36;97197.06;;;18.19;39.58
75447;BME280;64024;55.820;37.574;2023-03-03T10:28:26;97193.03;;;18.08;38.95
75447;BME280;64024;55.820;37.574;2023-03-03T10:36:52;97196.66;;;18.03;39.02
75447;BME280;64024;55.820;37.574;2023-03-03T10:39:23;97200.44;;;18.02;39.07
75447;BME280;64024;55.820;37.574;2023-03-03T10:53:13;97208.03;;;18.00;39.13
75447;BME280;64024;55.820;37.574;2023-03-03T11:06:28;97208.69;;;18.06;39.55
75447;BME280;64024;55.820;37.574;2023-03-03T11:09:39;97205.09;;;18.10;39.47
75447;BME280;64024;55.820;37.574;2023-03-03T11:17:55;97213.50;;;18.18;39.25
75447;BME280;64024;55.820;37.574;2023-03-03T11:36:56;97228.13;;;18.25;39.80
75447;BME280;64024;55.820;37.574;2023-03-03T11:39:26;97224.63;;;18.25;39.70
75447;BME280;64024;55.820;37.574;2023-03-03T11:42:14;97219.25;;;18.25;39.92
75447;BME280;64024;55.820;37.574;2023-03-03T11:44:48;97226.22;;;18.26;39.79
75447;BME280;64024;55.820;37.574;2023-03-03T11:47:37;97227.31;;;18.25;40.19
75447;BME280;64024;55.820;37.574;2023-03-03T11:50:21;97223.81;;;18.24;39.83
75447;BME280;64024;55.820;37.574;2023-03-03T11:55:33;97230.31;;;18.23;40.16
75447;BME280;64024;55.820;37.574;2023-03-03T11:58:15;97219.88;;;18.22;39.85
75447;BME280;64024;55.820;37.574;2023-03-03T12:03:44;97219.09;;;18.21;39.98
75447;BME280;64024;55.820;37.574;2023-03-03T12:12:07;97221.44;;;18.23;40.21
75447;BME280;64024;55.820;37.574;2023-03-03T12:15:00;97230.81;;;18.25;40.04
75447;BME280;64024;55.820;37.574;2023-03-03T12:25:45;97226.50;;;18.24;40.09
75447;BME280;64024;55.820;37.574;2023-03-03T12:28:27;97226.50;;;18.24;40.00
75447;BME280;64024;55.820;37.574;2023-03-03T12:31:16;97221.44;;;18.23;39.91
75447;BME280;64024;55.820;37.574;2023-03-03T12:34:13;97222.25;;;18.23;40.08
75447;BME280;64024;55.820;37.574;2023-03-03T12:41:59;97229.34;;;18.19;39.75
75447;BME280;64024;55.820;37.574;2023-03-03T12:47:39;97230.75;;;18.17;39.94
75447;BME280;64024;55.820;37.574;2023-03-03T13:01:00;97232.28;;;18.09;39.60
75447;BME280;64024;55.820;37.574;2023-03-03T13:20:03;97244.56;;;18.01;39.55
75447;BME280;64024;55.820;37.574;2023-03-03T13:28:15;97252.56;;;17.93;39.62
75447;BME280;64024;55.820;37.574;2023-03-03T13:30:47;97242.41;;;17.89;39.93
75447;BME280;64024;55.820;37.574;2023-03-03T13:33:29;97254.72;;;17.91;39.96
75447;BME280;64024;55.820;37.574;2023-03-03T13:36:07;97250.47;;;17.89;39.98
75447;BME280;64024;55.820;37.574;2023-03-03T13:38:44;97252.38;;;17.89;40.25
75447;BME280;64024;55.820;37.574;2023-03-03T13:41:43;97245.88;;;17.90;40.54
75447;BME280;64024;55.820;37.574;2023-03-03T13:44:27;97247.00;;;17.89;40.60
75447;BME280;64024;55.820;37.574;2023-03-03T13:47:23;97244.78;;;17.91;41.18
75447;BME280;64024;55.820;37.574;2023-03-03T13:52:57;97249.06;;;17.92;41.31
75447;BME280;64024;55.820;37.574;2023-03-03T13:55:39;97239.13;;;17.93;41.27
75447;BME280;64024;55.820;37.574;2023-03-03T13:58:20;97239.13;;;17.93;41.43
75447;BME280;64024;55.820;37.574;2023-03-03T14:01:03;97234.53;;;17.93;41.25
75447;BME280;64024;55.820;37.574;2023-03-03T14:06:26;97239.91;;;17.93;41.30
75447;BME280;64024;55.820;37.574;2023-03-03T14:11:45;97247.00;;;17.89;41.22
75447;BME280;64024;55.820;37.574;2023-03-03T14:17:10;97246.19;;;17.88;41.24
75447;BME280;64024;55.820;37.574;2023-03-03T14:19:45;97256.94;;;17.88;41.01
75447;BME280;64024;55.820;37.574;2023-03-03T14:22:41;97248.09;;;17.88;41.10
75447;BME280;64024;55.820;37.574;2023-03-03T14:25:11;97251.06;;;17.86;41.01
75447;BME280;64024;55.820;37.574;2023-03-03T14:27:53;97256.25;;;17.83;40.96
75447;BME280;64024;55.820;37.574;2023-03-03T14:30:31;97247.72;;;17.81;40.77
75447;BME280;64024;55.820;37.574;2023-03-03T14:33:14;97254.47;;;17.78;40.99
75447;BME280;64024;55.820;37.574;2023-03-03T14:35:47;97250.19;;;17.77;40.86
75447;BME280;64024;55.820;37.574;2023-03-03T14:38:17;97254.00;;;17.76;40.78
75447;BME280;64024;55.820;37.574;2023-03-03T14:40:45;97252.97;;;17.72;40.67
75447;BME280;64024;55.820;37.574;2023-03-03T14:43:35;97254.88;;;17.72;40.62
75447;BME280;64024;55.820;37.574;2023-03-03T14:49:00;97252.00;;;17.68;40.58
75447;BME280;64024;55.820;37.574;2023-03-03T14:51:46;97247.22;;;17.65;40.62
75447;BME280;64024;55.820;37.574;2023-03-03T14:54:23;97252.91;;;17.63;40.58
75447;BME280;64024;55.820;37.574;2023-03-03T14:57:09;97251.59;;;17.61;40.66
75447;BME280;64024;55.820;37.574;2023-03-03T14:59:37;97256.50;;;17.59;40.54
75447;BME280;64024;55.820;37.574;2023-03-03T15:04:42;97257.69;;;17.53;40.52
75447;BME280;64024;55.820;37.574;2023-03-03T15:07:36;97258.78;;;17.52;40.61
75447;BME280;64024;55.820;37.574;2023-03-03T15:10:03;97267.44;;;17.49;40.33
75447;BME280;64024;55.820;37.574;2023-03-03T15:17:40;97264.38;;;17.42;40.32
75447;BME280;64024;55.820;37.574;2023-03-03T15:22:45;97265.28;;;17.37;40.46
75447;BME280;64024;55.820;37.574;2023-03-03T15:25:28;97267.47;;;17.35;40.31
75447;BME280;64024;55.820;37.574;2023-03-03T15:36:09;97274.34;;;17.27;40.06
75447;BME280;64024;55.820;37.574;2023-03-03T15:38:51;97276.81;;;17.24;40.23
75447;BME280;64024;55.820;37.574;2023-03-03T15:44:20;97277.41;;;17.21;40.24
75447;BME280;64024;55.820;37.574;2023-03-03T15:47:17;97279.31;;;17.20;40.51
75447;BME280;64024;55.820;37.574;2023-03-03T15:57:45;97271.88;;;17.17;40.90
75447;BME280;64024;55.820;37.574;2023-03-03T16:03:11;97280.50;;;17.14;41.21
75447;BME280;64024;55.820;37.574;2023-03-03T16:08:18;97272.25;;;17.10;41.48
75447;BME280;64024;55.820;37.574;2023-03-03T16:11:03;97281.69;;;17.08;41.44
75447;BME280;64024;55.820;37.574;2023-03-03T16:13:53;97280.63;;;17.09;41.38
75447;BME280;64024;55.820;37.574;2023-03-03T16:33:03;97249.50;;;16.94;40.57
75447;BME280;64024;55.820;37.574;2023-03-03T16:35:35;97255.16;;;16.93;40.50
75447;BME280;64024;55.820;37.574;2023-03-03T16:38:19;97258.13;;;16.91;40.66
75447;BME280;64024;55.820;37.574;2023-03-03T16:40:56;97257.66;;;16.89;40.86
75447;BME280;64024;55.820;37.574;2023-03-03T16:44:11;97263.00;;;16.89;40.53
75447;BME280;64024;55.820;37.574;2023-03-03T16:46:42;97258.06;;;16.96;40.27
75447;BME280;64024;55.820;37.574;2023-03-03T16:54:34;97260.72;;;16.82;40.35
75447;BME280;64024;55.820;37.574;2023-03-03T16:57:33;97267.16;;;16.81;40.28
75447;BME280;64024;55.820;37.574;2023-03-03T17:00:20;97253.25;;;16.79;40.39
75447;BME280;64024;55.820;37.574;2023-03-03T17:05:52;97255.44;;;16.77;40.51
75447;BME280;64024;55.820;37.574;2023-03-03T17:08:41;97250.66;;;16.74;40.49
75447;BME280;64024;55.820;37.574;2023-03-03T17:16:43;97250.72;;;16.69;39.68
75447;BME280;64024;55.820;37.574;2023-03-03T17:32:31;97257.56;;;16.61;39.98
75447;BME280;64024;55.820;37.574;2023-03-03T17:43:15;97251.31;;;16.52;40.64
75447;BME280;64024;55.820;37.574;2023-03-03T17:45:44;97255.09;;;16.51;40.47
75447;BME280;64024;55.820;37.574;2023-03-03T17:48:19;97255.34;;;16.50;40.71
75447;BME280;64024;55.820;37.574;2023-03-03T17:53:41;97257.75;;;16.51;40.99